Time;durP1;ratioP1;P1;durP2;ratioP2;P2;SDS_P1;SDS_P2;PMS_P1;PMS_P2;Temp;Humidity;BMP_temperature;BMP_pressure;BME280_temperature;BME280_humidity;BME280_pressure;Samples;Min_cycle;Max_cycle;Signal;HPM_P1;HPM_P2
2023/03/24 01:42:37;;;;;;;;;;;;;;;-145.06;100.00;60892.56;4853557;28;19925;-91
2023/03/24 01:48:54;;;;;;;;;;;;;;;-145.06;100.00;60892.56;4831874;28;19918;-91
2023/03/24 01:58:59;;;;;;;;;;;;;;;-145.06;100.00;60892.56;4834100;28;19922;-92
2023/03/24 02:01:17;;;;;;;;;;;;;;;-145.06;100.00;60892.56;4837321;28;19905;-92
2023/03/24 02:04:17;;;;;;;;;;;;;;;;;;;;;
2023/03/24 02:07:19;;;;;;;;;;;;;;;;;;;;;
2023/03/24 02:10:24;;;;;;;;;;;;;;;-145.06;100.00;60892.56;4855853;28;19953;-93
2023/03/24 02:22:49;;;;;;;;;;;;;;;-145.06;100.00;60892.56;4827709;28;19957;-91
2023/03/24 02:25:47;;;;;;;;;;;;;;;-145.06;100.00;60892.56;4832615;28;19913;-92
2023/03/24 02:28:39;;;;;;;;;;;;;;;-145.06;100.00;60892.56;4847596;28;19914;-92
2023/03/24 02:31:33;;;;;;;;;;;;;;;-145.06;100.00;60892.56;4821788;28;19914;-91
2023/03/24 02:34:40;;;;;;;;;;;;;;;-145.06;100.00;60892.56;4846522;28;19917;-92
2023/03/24 02:38:06;;;;;;;;;;;;;;;;;;;;;
2023/03/24 02:41:09;;;;;;;;;;;;;;;-145.06;100.00;60892.56;4842546;28;19957;-91
2023/03/24 02:44:10;;;;;;;;;;;;;;;-145.06;100.00;60892.56;4847389;28;19922;-92
2023/03/24 02:50:51;;;;;;;;;;;;;;;;;;;;;
2023/03/24 04:16:00;;;;;;;;;;;;;;;-145.06;100.00;60892.56;4754878;29;19955;-91
2023/03/24 04:19:22;;;;;;;;;;;;;;;-145.06;100.00;60892.56;4756825;29;19923;-93
2023/03/24 04:22:19;;;;;;;;;;;;;;;-145.06;100.00;60892.56;4731976;29;19920;-92
2023/03/24 04:25:23;;;;;;;;;;;;;;;-145.06;100.00;60892.56;4747960;29;20287;-91
2023/03/24 04:34:28;;;;;;;;;;;;;;;-145.06;100.00;60892.56;4735007;29;19919;-92
2023/03/24 04:37:12;;;;;;;;;;;;;;;-145.06;100.00;60892.56;4726105;29;19919;-92
2023/03/24 04:40:25;;;;;;;;;;;;;;;;;;;;;
2023/03/24 04:47:08;;;;;;;;;;;;;;;-145.06;100.00;60892.56;4752521;29;19915;-92
2023/03/24 05:16:57;;;;;;;;;;;;;;;;;;;;;
2023/03/24 05:33:43;;;;;;;;;;;;;;;-145.06;100.00;60892.56;4802294;28;19918;-93
2023/03/24 05:36:20;;;;;;;;;;;;;;;-145.06;100.00;60892.56;4773741;29;19918;-91
2023/03/24 05:39:02;;;;;;;;;;;;;;;-145.06;100.00;60892.56;4790564;28;20364;-92
2023/03/24 05:42:11;;;;;;;;;;;;;;;-145.06;100.00;60892.56;4791263;29;20380;-93
2023/03/24 05:44:50;;;;;;;;;;;;;;;-145.06;100.00;60892.56;4778193;29;19919;-92
2023/03/24 06:32:00;;;;;;;;;;;;;;;-145.06;100.00;60892.56;4798025;28;19914;-91
2023/03/24 06:34:35;;;;;;;;;;;;;;;-145.06;100.00;60892.56;4756861;29;19915;-92
2023/03/24 06:38:10;;;;;;;;;;;;;;;-145.06;100.00;60892.56;4768410;28;19953;-92
2023/03/24 06:41:17;;;;;;;;;;;;;;;-145.06;100.00;60892.56;4790166;29;19919;-93
2023/03/24 06:47:56;;;;;;;;;;;;;;;-145.06;100.00;60892.56;4799584;28;19914;-92
2023/03/24 06:57:04;;;;;;;;;;;;;;;-145.06;100.00;60892.56;4803396;28;19953;-91
2023/03/24 07:11:43;;;;;;;;;;;;;;;;;;;;;
2023/03/24 07:22:34;;;;;;;;;;;;;;;;;;;;;
2023/03/24 07:32:58;;;;;;;;;;;;;;;;;;;;;
2023/03/24 07:35:39;;;;;;;;;;;;;;;;;;;;;
2023/03/24 08:30:52;;;;;;;;;;;;;;;-145.06;100.00;60892.56;4726473;29;19919;-91
2023/03/24 08:34:15;;;;;;;;;;;;;;;-145.06;100.00;60892.56;4743913;29;19950;-90
2023/03/24 08:37:44;;;;;;;;;;;;;;;-145.06;100.00;60892.56;4789893;28;20001;-92
2023/03/24 08:40:27;;;;;;;;;;;;;;;-145.06;100.00;60892.56;4782562;29;19927;-90
2023/03/24 08:43:29;;;;;;;;;;;;;;;-145.06;100.00;60892.56;4793127;28;19915;-92
2023/03/24 08:49:19;;;;;;;;;;;;;;;-145.06;100.00;60892.56;4763539;29;19966;-91
2023/03/24 09:04:27;;;;;;;;;;;;;;;-145.06;100.00;60892.56;4850431;23;19926;-92
2023/03/24 09:08:07;;;;;;;;;;;;;;;;;;;;;
2023/03/24 09:11:11;;;;;;;;;;;;;;;-145.06;100.00;60892.56;4811214;28;19919;-92
2023/03/24 09:14:21;;;;;;;;;;;;;;;-145.06;100.00;60892.56;4785664;29;19927;-92
2023/03/24 09:24:26;;;;;;;;;;;;;;;;;;;;;
2023/03/24 09:27:40;;;;;;;;;;;;;;;;;;;;;
2023/03/24 09:30:40;;;;;;;;;;;;;;;-145.06;100.00;60892.56;4788307;28;19918;-92
2023/03/24 09:40:22;;;;;;;;;;;;;;;-145.06;100.00;60892.56;4789453;29;19926;-91
2023/03/24 09:47:09;;;;;;;;;;;;;;;;;;;;;
2023/03/24 09:53:35;;;;;;;;;;;;;;;;;;;;;
2023/03/24 10:00:02;;;;;;;;;;;;;;;-145.06;100.00;60892.56;4680698;29;19925;-91
2023/03/24 10:03:22;;;;;;;;;;;;;;;;;;;;;
2023/03/24 10:06:27;;;;;;;;;;;;;;;-145.06;100.00;60892.56;4686084;29;20311;-92
2023/03/24 10:09:45;;;;;;;;;;;;;;;-145.06;100.00;60892.56;4729739;29;19919;-92
2023/03/24 10:16:16;;;;;;;;;;;;;;;-145.06;100.00;60892.56;4786337;28;19919;-92
2023/03/24 10:19:26;;;;;;;;;;;;;;;-145.06;100.00;60892.56;4870623;23;19969;-92
2023/03/24 10:22:34;;;;;;;;;;;;;;;-145.06;100.00;60892.56;4796479;28;19930;-92
2023/03/24 10:29:22;;;;;;;;;;;;;;;-145.06;100.00;60892.56;4816907;23;19954;-91
2023/03/24 10:32:22;;;;;;;;;;;;;;;-145.06;100.00;60892.56;4799220;28;20277;-91
2023/03/24 10:35:22;;;;;;;;;;;;;;;-145.06;100.00;60892.56;4786434;29;19946;-90
2023/03/24 10:38:43;;;;;;;;;;;;;;;-145.06;100.00;60892.56;4806331;28;19915;-90
2023/03/24 10:45:16;;;;;;;;;;;;;;;;;;;;;
2023/03/24 10:55:02;;;;;;;;;;;;;;;-145.06;100.00;60892.56;4771247;28;20294;-91
2023/03/24 11:01:50;;;;;;;;;;;;;;;;;;;;;
2023/03/24 11:04:41;;;;;;;;;;;;;;;-145.06;100.00;60892.56;4748272;29;19919;-91
2023/03/24 11:07:47;;;;;;;;;;;;;;;;;;;;;
2023/03/24 11:10:37;;;;;;;;;;;;;;;-145.06;100.00;60892.56;4816450;28;19914;-92
2023/03/24 11:13:36;;;;;;;;;;;;;;;-145.06;100.00;60892.56;4790351;28;19915;-92
2023/03/24 11:16:31;;;;;;;;;;;;;;;-145.06;100.00;60892.56;4795397;28;19919;-92
2023/03/24 11:19:38;;;;;;;;;;;;;;;;;;;;;
2023/03/24 11:22:26;;;;;;;;;;;;;;;-145.06;100.00;60892.56;4801532;28;20138;-91
2023/03/24 11:25:22;;;;;;;;;;;;;;;-145.06;100.00;60892.56;4808395;28;19918;-92
2023/03/24 11:28:15;;;;;;;;;;;;;;;-145.06;100.00;60892.56;4824410;28;19918;-90
2023/03/24 11:31:07;;;;;;;;;;;;;;;-145.06;100.00;60892.56;4794064;29;19919;-91
2023/03/24 11:33:55;;;;;;;;;;;;;;;-145.06;100.00;60892.56;4793443;28;20262;-90
2023/03/24 11:36:41;;;;;;;;;;;;;;;-145.06;100.00;60892.56;4791927;28;19918;-91
2023/03/24 11:39:24;;;;;;;;;;;;;;;-145.06;100.00;60892.56;4797495;28;19922;-90
2023/03/24 11:42:29;;;;;;;;;;;;;;;-145.06;100.00;60892.56;4808721;28;19918;-91
2023/03/24 11:45:38;;;;;;;;;;;;;;;-145.06;100.00;60892.56;4807288;28;19922;-93
2023/03/24 11:48:39;;;;;;;;;;;;;;;-145.06;100.00;60892.56;4790424;28;19957;-93
2023/03/24 11:51:37;;;;;;;;;;;;;;;-145.06;100.00;60892.56;4797058;28;19922;-92
2023/03/24 11:57:56;;;;;;;;;;;;;;;-145.06;100.00;60892.56;4803570;28;20258;-91
2023/03/24 12:07:47;;;;;;;;;;;;;;;-145.06;100.00;60892.56;4790950;28;20562;-92
2023/03/24 12:13:57;;;;;;;;;;;;;;;-145.06;100.00;60892.56;4785879;29;19957;-93
2023/03/24 12:16:39;;;;;;;;;;;;;;;-145.06;100.00;60892.56;4765489;29;19950;-93
2023/03/24 13:05:03;;;;;;;;;;;;;;;;;;;;;
2023/03/24 13:11:13;;;;;;;;;;;;;;;-145.06;100.00;60892.56;4803924;28;20388;-89
2023/03/24 13:14:05;;;;;;;;;;;;;;;-145.06;100.00;60892.56;4817798;28;19922;-90
2023/03/24 13:16:56;;;;;;;;;;;;;;;-145.06;100.00;60892.56;4820607;28;20013;-89
2023/03/24 13:19:41;;;;;;;;;;;;;;;-145.06;100.00;60892.56;4800990;28;20001;-89
2023/03/24 13:22:29;;;;;;;;;;;;;;;-145.06;100.00;60892.56;4807507;28;19922;-90
2023/03/24 13:25:31;;;;;;;;;;;;;;;-145.06;100.00;60892.56;4805898;28;19918;-90
2023/03/24 13:28:35;;;;;;;;;;;;;;;;;;;;;
2023/03/24 13:31:37;;;;;;;;;;;;;;;-145.06;100.00;60892.56;4809546;28;19918;-91
2023/03/24 13:34:52;;;;;;;;;;;;;;;;;;;;;
2023/03/24 13:37:37;;;;;;;;;;;;;;;-145.06;100.00;60892.56;4807031;28;19918;-92
2023/03/24 13:44:12;;;;;;;;;;;;;;;-145.06;100.00;60892.56;4807966;28;19918;-91
2023/03/24 13:47:38;;;;;;;;;;;;;;;;;;;;;
2023/03/24 13:50:54;;;;;;;;;;;;;;;-145.06;100.00;60892.56;4810112;28;20261;-91
2023/03/24 13:57:22;;;;;;;;;;;;;;;-145.06;100.00;60892.56;4775726;29;19919;-89
2023/03/24 14:04:11;;;;;;;;;;;;;;;-145.06;100.00;60892.56;4788520;28;20178;-91
2023/03/24 14:07:19;;;;;;;;;;;;;;;-145.06;100.00;60892.56;4778986;28;20365;-91
2023/03/24 14:13:34;;;;;;;;;;;;;;;-145.06;100.00;60892.56;4817754;28;19918;-91
2023/03/24 14:16:36;;;;;;;;;;;;;;;-145.06;100.00;60892.56;4810075;28;19917;-91
2023/03/24 14:19:44;;;;;;;;;;;;;;;-145.06;100.00;60892.56;4784052;23;19990;-91
2023/03/24 14:26:04;;;;;;;;;;;;;;;-145.06;100.00;60892.56;4765031;29;20013;-91
2023/03/24 14:29:06;;;;;;;;;;;;;;;-145.06;100.00;60892.56;4770836;29;19919;-92
2023/03/24 14:32:16;;;;;;;;;;;;;;;-145.06;100.00;60892.56;4781438;28;19927;-91
2023/03/24 14:38:22;;;;;;;;;;;;;;;-145.06;100.00;60892.56;4765970;28;19918;-92
2023/03/24 14:41:37;;;;;;;;;;;;;;;-145.06;100.00;60892.56;4789155;28;20270;-92
2023/03/24 14:44:35;;;;;;;;;;;;;;;-145.06;100.00;60892.56;4767472;29;20551;-89
2023/03/24 14:47:34;;;;;;;;;;;;;;;;;;;;;
2023/03/24 14:50:32;;;;;;;;;;;;;;;-145.06;100.00;60892.56;4781849;29;19919;-91
2023/03/24 15:04:03;;;;;;;;;;;;;;;-145.06;100.00;60892.56;4776932;28;19923;-91
2023/03/24 15:07:18;;;;;;;;;;;;;;;-145.06;100.00;60892.56;4781452;28;19959;-91
2023/03/24 15:24:58;;;;;;;;;;;;;;;-145.06;100.00;60892.56;4763088;29;20021;-91
2023/03/24 15:27:52;;;;;;;;;;;;;;;-145.06;100.00;60892.56;4769509;29;19978;-92
2023/03/24 15:30:31;;;;;;;;;;;;;;;-145.06;100.00;60892.56;4755218;29;19923;-90
2023/03/24 15:33:12;;;;;;;;;;;;;;;-145.06;100.00;60892.56;4752813;29;19962;-90
2023/03/24 15:36:01;;;;;;;;;;;;;;;-145.06;100.00;60892.56;4759130;29;19919;-92
2023/03/24 15:38:56;;;;;;;;;;;;;;;-145.06;100.00;60892.56;4773845;29;20287;-91
2023/03/24 15:41:35;;;;;;;;;;;;;;;-145.06;100.00;60892.56;4774426;29;19922;-90
2023/03/24 15:44:36;;;;;;;;;;;;;;;-145.06;100.00;60892.56;4744239;29;19915;-91
2023/03/24 15:47:18;;;;;;;;;;;;;;;-145.06;100.00;60892.56;4763811;29;19919;-91
2023/03/24 15:50:29;;;;;;;;;;;;;;;-145.06;100.00;60892.56;4773685;29;19919;-91
2023/03/24 15:53:17;;;;;;;;;;;;;;;-145.06;100.00;60892.56;4775426;29;19914;-92
2023/03/24 15:56:18;;;;;;;;;;;;;;;;;;;;;
2023/03/24 15:59:38;;;;;;;;;;;;;;;;;;;;;
2023/03/24 16:02:47;;;;;;;;;;;;;;;-145.06;100.00;60892.56;4751751;29;19919;-90
2023/03/24 16:05:30;;;;;;;;;;;;;;;-145.06;100.00;60892.56;4770913;29;19923;-91
2023/03/24 16:08:34;;;;;;;;;;;;;;;-145.06;100.00;60892.56;4772634;29;19919;-91
2023/03/24 16:11:24;;;;;;;;;;;;;;;-145.06;100.00;60892.56;4775232;29;19915;-91
2023/03/24 16:14:23;;;;;;;;;;;;;;;-145.06;100.00;60892.56;4769816;29;19919;-92
2023/03/24 16:20:29;;;;;;;;;;;;;;;;;;;;;
2023/03/24 16:26:54;;;;;;;;;;;;;;;-145.06;100.00;60892.56;4778337;29;19923;-91
2023/03/24 18:05:47;;;;;;;;;;;;;;;-145.06;100.00;60892.56;4799964;28;19934;-91
2023/03/24 18:08:29;;;;;;;;;;;;;;;-145.06;100.00;60892.56;4795849;28;19922;-91
2023/03/24 18:11:10;;;;;;;;;;;;;;;-145.06;100.00;60892.56;4770097;29;19919;-92
2023/03/24 18:13:58;;;;;;;;;;;;;;;-145.06;100.00;60892.56;4780086;29;19919;-92
2023/03/24 18:16:38;;;;;;;;;;;;;;;-145.06;100.00;60892.56;4777886;29;19914;-90
2023/03/24 18:19:17;;;;;;;;;;;;;;;-145.06;100.00;60892.56;4785291;28;19931;-91
2023/03/24 18:21:56;;;;;;;;;;;;;;;-145.06;100.00;60892.56;4761800;29;19950;-89
2023/03/24 18:24:35;;;;;;;;;;;;;;;-145.06;100.00;60892.56;4770688;29;19918;-93
2023/03/24 18:27:14;;;;;;;;;;;;;;;-145.06;100.00;60892.56;4770299;29;19923;-90
2023/03/24 18:29:53;;;;;;;;;;;;;;;-145.06;100.00;60892.56;4773592;29;19915;-91
2023/03/24 18:32:34;;;;;;;;;;;;;;;-145.06;100.00;60892.56;4777069;29;19923;-91
2023/03/24 18:35:16;;;;;;;;;;;;;;;-145.06;100.00;60892.56;4771990;29;19914;-91
2023/03/24 18:37:56;;;;;;;;;;;;;;;-145.06;100.00;60892.56;4783460;28;19955;-92
2023/03/24 18:40:34;;;;;;;;;;;;;;;-145.06;100.00;60892.56;4780851;29;19930;-92
2023/03/24 18:43:13;;;;;;;;;;;;;;;-145.06;100.00;60892.56;4771077;29;19915;-92
2023/03/24 18:45:52;;;;;;;;;;;;;;;-145.06;100.00;60892.56;4770159;29;19958;-91
2023/03/24 18:48:31;;;;;;;;;;;;;;;-145.06;100.00;60892.56;4773632;29;19918;-91
2023/03/24 18:51:10;;;;;;;;;;;;;;;-145.06;100.00;60892.56;4767542;29;19919;-91
2023/03/24 18:53:50;;;;;;;;;;;;;;;-145.06;100.00;60892.56;4773107;29;20373;-92
2023/03/24 18:56:29;;;;;;;;;;;;;;;-145.06;100.00;60892.56;4773257;29;19927;-91
2023/03/24 18:59:08;;;;;;;;;;;;;;;-145.06;100.00;60892.56;4772397;29;19919;-92
2023/03/24 19:01:49;;;;;;;;;;;;;;;-145.06;100.00;60892.56;4786087;29;19947;-93
2023/03/24 19:04:28;;;;;;;;;;;;;;;-145.06;100.00;60892.56;4771174;29;19926;-92
2023/03/24 19:07:13;;;;;;;;;;;;;;;-145.06;100.00;60892.56;4774385;29;19914;-91
2023/03/24 19:09:53;;;;;;;;;;;;;;;-145.06;100.00;60892.56;4777036;29;19922;-92
2023/03/24 19:12:32;;;;;;;;;;;;;;;-145.06;100.00;60892.56;4790903;28;19923;-91
2023/03/24 19:15:12;;;;;;;;;;;;;;;-145.06;100.00;60892.56;4772701;29;20283;-92
2023/03/24 19:17:51;;;;;;;;;;;;;;;-145.06;100.00;60892.56;4771758;29;19931;-92
2023/03/24 19:20:32;;;;;;;;;;;;;;;-145.06;100.00;60892.56;4761349;29;19919;-92
2023/03/24 19:23:10;;;;;;;;;;;;;;;-145.06;100.00;60892.56;4789769;29;19918;-91
2023/03/24 19:25:53;;;;;;;;;;;;;;;-145.06;100.00;60892.56;4770101;29;19919;-91
2023/03/24 19:31:51;;;;;;;;;;;;;;;-145.06;100.00;60892.56;4776904;29;19926;-91
2023/03/24 19:34:30;;;;;;;;;;;;;;;-145.06;100.00;60892.56;4777562;29;20276;-92
2023/03/24 19:37:09;;;;;;;;;;;;;;;-145.06;100.00;60892.56;4772965;29;19914;-92
2023/03/24 19:39:48;;;;;;;;;;;;;;;-145.06;100.00;60892.56;4773147;29;19962;-91
2023/03/24 19:42:45;;;;;;;;;;;;;;;-145.06;100.00;60892.56;4772903;29;19919;-91
2023/03/24 19:45:25;;;;;;;;;;;;;;;-145.06;100.00;60892.56;4764665;29;19919;-92
2023/03/24 19:48:04;;;;;;;;;;;;;;;-145.06;100.00;60892.56;4752535;29;19923;-91
2023/03/24 19:50:44;;;;;;;;;;;;;;;-145.06;100.00;60892.56;4752967;29;19919;-90
2023/03/24 19:53:25;;;;;;;;;;;;;;;-145.06;100.00;60892.56;4758054;29;19919;-91
2023/03/24 19:56:05;;;;;;;;;;;;;;;-145.06;100.00;60892.56;4738892;29;19966;-92
2023/03/24 19:58:44;;;;;;;;;;;;;;;-145.06;100.00;60892.56;4737870;29;19919;-91
2023/03/24 20:01:23;;;;;;;;;;;;;;;-145.06;100.00;60892.56;4753948;29;19919;-93
2023/03/24 20:04:02;;;;;;;;;;;;;;;-145.06;100.00;60892.56;4757460;29;19958;-93
2023/03/24 20:06:43;;;;;;;;;;;;;;;-145.06;100.00;60892.56;4755719;29;19915;-92
2023/03/24 20:09:22;;;;;;;;;;;;;;;-145.06;100.00;60892.56;4753919;29;19954;-92
2023/03/24 20:12:02;;;;;;;;;;;;;;;-145.06;100.00;60892.56;4752774;29;19923;-91
2023/03/24 20:14:43;;;;;;;;;;;;;;;-145.06;100.00;60892.56;4754240;29;19950;-92
2023/03/24 20:17:27;;;;;;;;;;;;;;;-145.06;100.00;60892.56;4749226;29;19955;-91
2023/03/24 20:20:09;;;;;;;;;;;;;;;-145.06;100.00;60892.56;4747120;29;19927;-91
2023/03/24 20:22:48;;;;;;;;;;;;;;;-145.06;100.00;60892.56;4752476;29;20258;-92
2023/03/24 20:25:29;;;;;;;;;;;;;;;-145.06;100.00;60892.56;4755648;29;19998;-90
2023/03/24 20:28:08;;;;;;;;;;;;;;;-145.06;100.00;60892.56;4755608;29;19915;-91
2023/03/24 20:30:47;;;;;;;;;;;;;;;-145.06;100.00;60892.56;4755294;29;19990;-91
2023/03/24 20:33:27;;;;;;;;;;;;;;;-145.06;100.00;60892.56;4756121;29;19916;-91
2023/03/24 20:36:06;;;;;;;;;;;;;;;-145.06;100.00;60892.56;4756008;29;19915;-92
2023/03/24 20:38:45;;;;;;;;;;;;;;;-145.06;100.00;60892.56;4754896;29;20026;-90
2023/03/24 20:41:25;;;;;;;;;;;;;;;-145.06;100.00;60892.56;4754439;29;19923;-91
2023/03/24 20:44:04;;;;;;;;;;;;;;;-145.06;100.00;60892.56;4749285;29;19931;-91
2023/03/24 20:46:44;;;;;;;;;;;;;;;-145.06;100.00;60892.56;4754207;29;19923;-91
2023/03/24 20:49:30;;;;;;;;;;;;;;;-145.06;100.00;60892.56;4755179;29;20321;-92
2023/03/24 20:52:09;;;;;;;;;;;;;;;-145.06;100.00;60892.56;4747659;29;19915;-92
2023/03/24 20:54:49;;;;;;;;;;;;;;;-145.06;100.00;60892.56;4754395;29;19919;-92
2023/03/24 20:57:30;;;;;;;;;;;;;;;-145.06;100.00;60892.56;4753085;29;19923;-91
2023/03/24 21:00:15;;;;;;;;;;;;;;;-145.06;100.00;60892.56;4750361;29;19927;-91
2023/03/24 21:02:54;;;;;;;;;;;;;;;-145.06;100.00;60892.56;4761226;29;19918;-92
2023/03/24 21:05:33;;;;;;;;;;;;;;;-145.06;100.00;60892.56;4743830;29;19919;-91
2023/03/24 21:08:12;;;;;;;;;;;;;;;-145.06;100.00;60892.56;4748965;29;19919;-91
2023/03/24 21:10:55;;;;;;;;;;;;;;;-145.06;100.00;60892.56;4754336;29;19919;-91
2023/03/24 21:13:36;;;;;;;;;;;;;;;-145.06;100.00;60892.56;4756828;29;19919;-91
2023/03/24 21:16:18;;;;;;;;;;;;;;;-145.06;100.00;60892.56;4756362;29;19918;-91
2023/03/24 21:19:00;;;;;;;;;;;;;;;-145.06;100.00;60892.56;4759636;29;19919;-90
2023/03/24 21:21:41;;;;;;;;;;;;;;;-145.06;100.00;60892.56;4754326;29;19919;-91
2023/03/24 21:24:20;;;;;;;;;;;;;;;-145.06;100.00;60892.56;4750296;29;19916;-92
2023/03/24 21:26:59;;;;;;;;;;;;;;;-145.06;100.00;60892.56;4747849;29;19919;-92
2023/03/24 21:29:38;;;;;;;;;;;;;;;-145.06;100.00;60892.56;4754650;29;19911;-91
2023/03/24 21:32:20;;;;;;;;;;;;;;;-145.06;100.00;60892.56;4755905;29;19915;-91
2023/03/24 21:34:59;;;;;;;;;;;;;;;-145.06;100.00;60892.56;4753779;29;19919;-93
2023/03/24 21:37:44;;;;;;;;;;;;;;;-145.06;100.00;60892.56;4754454;29;19919;-92
2023/03/24 21:40:24;;;;;;;;;;;;;;;-145.06;100.00;60892.56;4753203;29;19923;-91
2023/03/24 21:43:03;;;;;;;;;;;;;;;-145.06;100.00;60892.56;4752432;29;19915;-91
2023/03/24 21:45:44;;;;;;;;;;;;;;;-145.06;100.00;60892.56;4751817;29;19919;-91
2023/03/24 21:48:27;;;;;;;;;;;;;;;-145.06;100.00;60892.56;4757576;29;19922;-92
2023/03/24 21:51:06;;;;;;;;;;;;;;;-145.06;100.00;60892.56;4753698;29;20370;-91
2023/03/24 21:53:46;;;;;;;;;;;;;;;-145.06;100.00;60892.56;4767680;29;19915;-91
2023/03/24 21:56:25;;;;;;;;;;;;;;;-145.06;100.00;60892.56;4762376;29;20385;-91
2023/03/24 21:59:04;;;;;;;;;;;;;;;-145.06;100.00;60892.56;4758732;29;19966;-91
2023/03/24 22:01:44;;;;;;;;;;;;;;;-145.06;100.00;60892.56;4750901;29;19919;-92
2023/03/24 22:04:24;;;;;;;;;;;;;;;-145.06;100.00;60892.56;4755424;29;19982;-91
2023/03/24 22:07:05;;;;;;;;;;;;;;;-145.06;100.00;60892.56;4754759;29;19919;-91
2023/03/24 22:09:44;;;;;;;;;;;;;;;-145.06;100.00;60892.56;4754575;29;19919;-91
2023/03/24 22:12:23;;;;;;;;;;;;;;;-145.06;100.00;60892.56;4754533;29;19919;-91
2023/03/24 22:15:02;;;;;;;;;;;;;;;-145.06;100.00;60892.56;4761033;29;19915;-91
2023/03/24 22:17:41;;;;;;;;;;;;;;;-145.06;100.00;60892.56;4756565;29;19924;-92
2023/03/24 22:20:21;;;;;;;;;;;;;;;-145.06;100.00;60892.56;4754286;29;19919;-90
2023/03/24 22:23:05;;;;;;;;;;;;;;;-145.06;100.00;60892.56;4772149;29;19946;-90
2023/03/24 22:25:44;;;;;;;;;;;;;;;-145.06;100.00;60892.56;4758087;29;19915;-92
2023/03/24 22:28:23;;;;;;;;;;;;;;;-145.06;100.00;60892.56;4751605;29;19919;-90
2023/03/24 22:31:03;;;;;;;;;;;;;;;-145.06;100.00;60892.56;4761436;29;19982;-91
2023/03/24 22:33:43;;;;;;;;;;;;;;;-145.06;100.00;60892.56;4752117;29;19915;-91
2023/03/24 22:36:27;;;;;;;;;;;;;;;-145.06;100.00;60892.56;4759496;29;20473;-91
2023/03/24 22:39:06;;;;;;;;;;;;;;;-145.06;100.00;60892.56;4753502;29;19923;-91
2023/03/24 22:41:55;;;;;;;;;;;;;;;-145.06;100.00;60892.56;4759159;29;19970;-90
2023/03/24 22:44:34;;;;;;;;;;;;;;;-145.06;100.00;60892.56;4760389;29;19919;-91
2023/03/24 22:47:14;;;;;;;;;;;;;;;-145.06;100.00;60892.56;4763340;29;19915;-91
2023/03/24 22:50:02;;;;;;;;;;;;;;;-145.06;100.00;60892.56;4754921;29;19915;-91
2023/03/24 22:52:41;;;;;;;;;;;;;;;-145.06;100.00;60892.56;4751960;29;19959;-91
2023/03/24 22:55:20;;;;;;;;;;;;;;;-145.06;100.00;60892.56;4761342;29;19915;-92
2023/03/24 22:57:59;;;;;;;;;;;;;;;-145.06;100.00;60892.56;4761984;29;19955;-93
2023/03/24 23:00:39;;;;;;;;;;;;;;;-145.06;100.00;60892.56;4754431;29;19958;-92
2023/03/24 23:03:18;;;;;;;;;;;;;;;-145.06;100.00;60892.56;4756865;29;19915;-91
2023/03/24 23:06:00;;;;;;;;;;;;;;;-145.06;100.00;60892.56;4757940;29;19947;-90
2023/03/24 23:08:45;;;;;;;;;;;;;;;-145.06;100.00;60892.56;4769377;29;19915;-90
2023/03/24 23:11:38;;;;;;;;;;;;;;;-145.06;100.00;60892.56;4758867;29;19919;-91
2023/03/24 23:14:18;;;;;;;;;;;;;;;-145.06;100.00;60892.56;4757391;29;20358;-90
2023/03/24 23:16:58;;;;;;;;;;;;;;;-145.06;100.00;60892.56;4757473;29;20014;-91
2023/03/24 23:19:39;;;;;;;;;;;;;;;-145.06;100.00;60892.56;4753049;29;19923;-91
2023/03/24 23:22:21;;;;;;;;;;;;;;;-145.06;100.00;60892.56;4757330;29;20366;-91
2023/03/24 23:25:02;;;;;;;;;;;;;;;-145.06;100.00;60892.56;4758461;29;19915;-90
2023/03/24 23:27:41;;;;;;;;;;;;;;;-145.06;100.00;60892.56;4767178;29;19923;-91
2023/03/24 23:30:20;;;;;;;;;;;;;;;-145.06;100.00;60892.56;4771924;29;19935;-90
2023/03/24 23:33:02;;;;;;;;;;;;;;;-145.06;100.00;60892.56;4759476;29;19927;-90
2023/03/24 23:35:41;;;;;;;;;;;;;;;-145.06;100.00;60892.56;4761519;29;19951;-90
2023/03/24 23:38:21;;;;;;;;;;;;;;;-145.06;100.00;60892.56;4761566;29;19923;-90
2023/03/24 23:41:01;;;;;;;;;;;;;;;-145.06;100.00;60892.56;4754025;29;19920;-91
2023/03/24 23:43:40;;;;;;;;;;;;;;;-145.06;100.00;60892.56;4769909;29;19915;-93
2023/03/24 23:46:19;;;;;;;;;;;;;;;-145.06;100.00;60892.56;4760681;29;19919;-91
2023/03/24 23:48:59;;;;;;;;;;;;;;;-145.06;100.00;60892.56;4745098;29;19950;-92
2023/03/24 23:51:38;;;;;;;;;;;;;;;-145.06;100.00;60892.56;4748313;29;20185;-91
2023/03/24 23:54:20;;;;;;;;;;;;;;;-145.06;100.00;60892.56;4773568;29;19966;-90
2023/03/24 23:57:02;;;;;;;;;;;;;;;-145.06;100.00;60892.56;4757016;29;19915;-90
2023/03/24 23:59:41;;;;;;;;;;;;;;;-145.06;100.00;60892.56;4769846;29;19923;-91
